Terminal Aerodrome Forecast
Issued by NWS

Home | Current Version | Previous Version | Graphics & Text | Print | Product List | Glossary On
Versions: 1 2 3 4 5 6 7 8 9 10 11 12
724
FTUS45 KGGW 232321
TAFSDY
TAF
KSDY 232321Z 2400/2424 01009KT P6SM -RA SCT040
     FM240100 36006KT P6SM OVC060
     FM240900 VRB04KT P6SM FEW190=

USA.gov is the U.S. government's official web portal to all federal, state and local government web resources and services.